Time;durP1;ratioP1;P1;durP2;ratioP2;P2;SDS_P1;SDS_P2;PMS_P1;PMS_P2;Temp;Humidity;BMP_temperature;BMP_pressure;BME280_temperature;BME280_humidity;BME280_pressure;Samples;Min_cycle;Max_cycle;Signal;HPM_P1;HPM_P2
2022/08/31 00:04:48;;;;;;;2.47;1.48;;;;;;;;;;5126094;27;20055;-88
2022/08/31 00:07:14;;;;;;;1.30;1.25;;;;;;;;;;5143250;27;20574;-89
2022/08/31 00:09:40;;;;;;;1.20;1.15;;;;;;;;;;5124964;27;20057;-88
2022/08/31 00:12:07;;;;;;;2.75;1.40;;;;;;;;;;5125143;27;20047;-90
2022/08/31 00:14:33;;;;;;;3.08;1.50;;;;;;;;;;5144769;27;20105;-88
2022/08/31 00:16:59;;;;;;;1.85;1.38;;;;;;;;;;5157171;27;21347;-92
2022/08/31 00:19:25;;;;;;;2.15;1.30;;;;;;;;;;5132923;27;20125;-91
2022/08/31 00:21:51;;;;;;;3.28;1.38;;;;;;;;;;5125967;27;20098;-87
2022/08/31 00:24:17;;;;;;;2.80;1.40;;;;;;;;;;5141143;27;20043;-89
2022/08/31 00:26:43;;;;;;;2.17;1.23;;;;;;;;;;5129603;27;20500;-89
2022/08/31 00:29:09;;;;;;;2.97;1.50;;;;;;;;;;5135251;27;20053;-87
2022/08/31 00:31:35;;;;;;;1.40;1.30;;;;;;;;;;5146108;27;20046;-89
2022/08/31 00:34:01;;;;;;;1.85;1.23;;;;;;;;;;5154912;27;20049;-91
2022/08/31 00:36:27;;;;;;;2.88;1.40;;;;;;;;;;5119183;27;20047;-90
2022/08/31 00:38:54;;;;;;;1.60;1.50;;;;;;;;;;5152411;27;20042;-88
2022/08/31 00:41:21;;;;;;;1.77;1.60;;;;;;;;;;5162149;27;20038;-93
2022/08/31 00:43:58;;;;;;;2.75;1.70;;;;;;;;;;5135687;27;20129;-89
2022/08/31 00:46:32;;;;;;;2.42;1.48;;;;;;;;;;5153929;27;20038;-89
2022/08/31 00:49:03;;;;;;;2.70;1.50;;;;;;;;;;5122441;27;20053;-88
2022/08/31 00:51:30;;;;;;;1.20;1.20;;;;;;;;;;5123659;27;20055;-88
2022/08/31 00:53:56;;;;;;;1.50;1.40;;;;;;;;;;5150257;27;20043;-88
2022/08/31 00:56:23;;;;;;;1.90;1.58;;;;;;;;;;5147548;27;20046;-88
2022/08/31 00:58:50;;;;;;;3.28;1.40;;;;;;;;;;5125060;27;20038;-86
2022/08/31 01:01:18;;;;;;;1.55;1.42;;;;;;;;;;5144310;27;20074;-90
2022/08/31 01:03:44;;;;;;;1.40;1.20;;;;;;;;;;5130566;27;20142;-86
2022/08/31 01:06:10;;;;;;;1.30;1.20;;;;;;;;;;5145264;27;20055;-89
2022/08/31 01:08:36;;;;;;;1.63;1.30;;;;;;;;;;5158240;27;20027;-86
2022/08/31 01:11:02;;;;;;;2.53;1.40;;;;;;;;;;5131783;27;20085;-90
2022/08/31 01:13:30;;;;;;;2.10;1.25;;;;;;;;;;5157851;27;20039;-91
2022/08/31 01:15:58;;;;;;;2.38;1.40;;;;;;;;;;5121748;27;20073;-91
2022/08/31 01:18:24;;;;;;;1.40;1.30;;;;;;;;;;5125591;27;20064;-92
2022/08/31 01:20:50;;;;;;;2.55;1.40;;;;;;;;;;5137055;27;20093;-90
2022/08/31 01:23:29;;;;;;;1.42;1.30;;;;;;;;;;5136229;27;20042;-90
2022/08/31 01:25:57;;;;;;;1.40;1.30;;;;;;;;;;5153590;27;20038;-91
2022/08/31 01:28:23;;;;;;;3.00;1.42;;;;;;;;;;5153780;27;20042;-91
2022/08/31 01:31:00;;;;;;;1.50;1.40;;;;;;;;;;5141647;27;20034;-90
2022/08/31 01:33:26;;;;;;;2.58;1.48;;;;;;;;;;5149006;27;20118;-89
2022/08/31 01:35:53;;;;;;;1.40;1.30;;;;;;;;;;5140195;27;20051;-90
2022/08/31 01:38:19;;;;;;;2.25;1.25;;;;;;;;;;5139476;27;20035;-90
2022/08/31 01:40:48;;;;;;;1.27;1.27;;;;;;;;;;5147826;27;20406;-88
2022/08/31 01:43:15;;;;;;;2.33;1.33;;;;;;;;;;5132320;27;20505;-89
2022/08/31 01:45:41;;;;;;;1.55;1.27;;;;;;;;;;5132495;27;20039;-89
2022/08/31 01:48:07;;;;;;;1.33;1.20;;;;;;;;;;5139028;27;20050;-90
2022/08/31 01:50:34;;;;;;;1.45;1.35;;;;;;;;;;5128423;27;20417;-88
2022/08/31 01:53:00;;;;;;;1.98;1.30;;;;;;;;;;5134665;27;20046;-88
2022/08/31 01:55:26;;;;;;;1.50;1.40;;;;;;;;;;5145991;27;20044;-87
2022/08/31 01:57:52;;;;;;;2.00;1.30;;;;;;;;;;5148797;27;20046;-88
2022/08/31 02:00:18;;;;;;;2.53;1.30;;;;;;;;;;5122404;27;20053;-90
2022/08/31 02:02:44;;;;;;;2.05;1.30;;;;;;;;;;5134091;27;20700;-88
2022/08/31 02:05:13;;;;;;;2.17;1.35;;;;;;;;;;5132885;27;20042;-89
2022/08/31 02:07:39;;;;;;;1.52;1.42;;;;;;;;;;5130854;27;20051;-89
2022/08/31 02:10:05;;;;;;;1.17;1.17;;;;;;;;;;5121693;27;20042;-90
2022/08/31 02:12:31;;;;;;;2.08;1.33;;;;;;;;;;5121186;27;20118;-89
2022/08/31 02:14:57;;;;;;;1.25;1.20;;;;;;;;;;5147088;27;20047;-88
2022/08/31 02:17:23;;;;;;;1.70;1.23;;;;;;;;;;5156787;27;20042;-92
2022/08/31 02:19:49;;;;;;;1.40;1.30;;;;;;;;;;5153237;27;20379;-89
2022/08/31 02:22:16;;;;;;;1.45;1.30;;;;;;;;;;5145530;27;20102;-91
2022/08/31 02:24:41;;;;;;;1.60;1.13;;;;;;;;;;5124331;27;20134;-89
2022/08/31 02:27:07;;;;;;;1.40;1.30;;;;;;;;;;5135376;27;20125;-88
2022/08/31 02:29:33;;;;;;;3.00;1.25;;;;;;;;;;5126173;27;20439;-89
2022/08/31 02:32:00;;;;;;;1.40;1.30;;;;;;;;;;5155003;27;20031;-89
2022/08/31 02:34:26;;;;;;;1.52;1.42;;;;;;;;;;5152948;27;20051;-89
2022/08/31 02:36:52;;;;;;;1.13;1.10;;;;;;;;;;5147518;27;20045;-89
2022/08/31 02:39:18;;;;;;;2.15;1.30;;;;;;;;;;5144407;27;20501;-89
2022/08/31 02:41:44;;;;;;;1.17;1.17;;;;;;;;;;5136365;27;20070;-89
2022/08/31 02:44:11;;;;;;;1.80;1.15;;;;;;;;;;5121126;27;20095;-88
2022/08/31 02:46:37;;;;;;;2.08;1.20;;;;;;;;;;5138547;27;20035;-89
2022/08/31 02:49:03;;;;;;;1.30;1.20;;;;;;;;;;5125036;27;20066;-88
2022/08/31 02:51:29;;;;;;;1.20;1.20;;;;;;;;;;5145466;27;20034;-89
2022/08/31 02:53:55;;;;;;;1.45;1.20;;;;;;;;;;5128120;27;20039;-87
2022/08/31 02:56:22;;;;;;;1.58;1.25;;;;;;;;;;5151860;27;20042;-92
2022/08/31 02:58:53;;;;;;;1.52;1.30;;;;;;;;;;5140604;27;20490;-89
2022/08/31 03:01:20;;;;;;;1.45;1.30;;;;;;;;;;5132111;27;20050;-91
2022/08/31 03:03:46;;;;;;;1.25;1.10;;;;;;;;;;5132619;27;20390;-89
2022/08/31 03:06:12;;;;;;;1.30;1.30;;;;;;;;;;5141106;27;20137;-92
2022/08/31 03:08:38;;;;;;;1.25;1.20;;;;;;;;;;5123997;27;22208;-90
2022/08/31 03:11:07;;;;;;;1.05;1.05;;;;;;;;;;5156429;27;20393;-91
2022/08/31 03:13:34;;;;;;;1.50;1.17;;;;;;;;;;5128788;27;20559;-88
2022/08/31 03:16:00;;;;;;;1.00;1.00;;;;;;;;;;5143924;27;20437;-90
2022/08/31 03:18:26;;;;;;;1.52;1.10;;;;;;;;;;5151453;27;20031;-91
2022/08/31 03:20:52;;;;;;;1.10;1.10;;;;;;;;;;5118991;27;20055;-89
2022/08/31 03:23:18;;;;;;;1.45;1.30;;;;;;;;;;5152296;27;20379;-88
2022/08/31 03:25:47;;;;;;;1.65;1.20;;;;;;;;;;5147949;27;20409;-89
2022/08/31 03:28:13;;;;;;;1.33;1.20;;;;;;;;;;5146630;27;20134;-88
2022/08/31 03:30:39;;;;;;;1.40;1.30;;;;;;;;;;5128435;27;20050;-89
2022/08/31 03:33:05;;;;;;;1.40;1.20;;;;;;;;;;5159957;27;20088;-90
2022/08/31 03:35:31;;;;;;;1.33;1.23;;;;;;;;;;5149952;27;20091;-88
2022/08/31 03:37:57;;;;;;;1.10;1.10;;;;;;;;;;5136716;27;20046;-90
2022/08/31 03:40:23;;;;;;;1.10;1.10;;;;;;;;;;5132781;27;20050;-87
2022/08/31 03:42:49;;;;;;;1.30;1.20;;;;;;;;;;5134877;27;20055;-88
2022/08/31 03:45:15;;;;;;;1.40;1.25;;;;;;;;;;5122762;27;20053;-88
2022/08/31 03:47:42;;;;;;;1.30;1.30;;;;;;;;;;5127977;27;20069;-88
2022/08/31 03:50:12;;;;;;;1.80;1.30;;;;;;;;;;5120147;27;20046;-89
2022/08/31 03:52:38;;;;;;;2.92;1.40;;;;;;;;;;5149794;27;20038;-87
2022/08/31 03:55:05;;;;;;;1.50;1.40;;;;;;;;;;5120658;27;20054;-86
2022/08/31 03:57:31;;;;;;;1.27;1.20;;;;;;;;;;5126600;27;20042;-88
2022/08/31 03:59:57;;;;;;;1.38;1.30;;;;;;;;;;5146645;27;20172;-86
2022/08/31 04:02:23;;;;;;;1.33;1.23;;;;;;;;;;5149784;27;20525;-88
2022/08/31 04:04:50;;;;;;;1.35;1.23;;;;;;;;;;5127427;27;20046;-88
2022/08/31 04:07:17;;;;;;;1.40;1.30;;;;;;;;;;5152081;27;20172;-88
2022/08/31 04:09:43;;;;;;;1.15;1.15;;;;;;;;;;5132067;27;20110;-88
2022/08/31 04:12:09;;;;;;;2.15;1.10;;;;;;;;;;5158742;27;20501;-89
2022/08/31 04:14:35;;;;;;;1.20;1.20;;;;;;;;;;5142443;27;20050;-87
2022/08/31 04:17:01;;;;;;;2.38;1.10;;;;;;;;;;5137624;27;20038;-89
2022/08/31 04:19:27;;;;;;;2.22;1.25;;;;;;;;;;5158571;27;20133;-89
2022/08/31 04:21:54;;;;;;;1.63;1.20;;;;;;;;;;5128534;27;20042;-88
2022/08/31 04:24:20;;;;;;;1.30;1.20;;;;;;;;;;5148527;27;20050;-91
2022/08/31 04:26:47;;;;;;;1.10;1.10;;;;;;;;;;5144419;27;20050;-90
2022/08/31 04:29:13;;;;;;;1.50;1.17;;;;;;;;;;5172318;27;20069;-86
2022/08/31 04:31:39;;;;;;;2.17;1.40;;;;;;;;;;5128576;27;20070;-86
2022/08/31 04:34:05;;;;;;;1.20;1.20;;;;;;;;;;5152457;27;20061;-88
2022/08/31 04:36:31;;;;;;;1.20;1.20;;;;;;;;;;5148366;27;20099;-86
2022/08/31 04:38:59;;;;;;;1.85;1.20;;;;;;;;;;5159539;27;20081;-88
2022/08/31 04:41:26;;;;;;;2.35;1.20;;;;;;;;;;5156979;27;20062;-86
2022/08/31 04:43:53;;;;;;;1.65;1.30;;;;;;;;;;5132582;27;20046;-89
2022/08/31 04:46:19;;;;;;;1.45;1.35;;;;;;;;;;5127807;27;20039;-86
2022/08/31 04:48:45;;;;;;;1.50;1.40;;;;;;;;;;5120112;27;20051;-89
2022/08/31 04:51:14;;;;;;;1.30;1.30;;;;;;;;;;5118579;27;20046;-88
2022/08/31 04:53:40;;;;;;;3.17;1.60;;;;;;;;;;5144163;27;20434;-85
2022/08/31 04:56:13;;;;;;;1.20;1.20;;;;;;;;;;5144854;27;20039;-88
2022/08/31 04:58:59;;;;;;;2.70;1.50;;;;;;;;;;5144280;27;20499;-87
2022/08/31 05:01:26;;;;;;;2.65;1.63;;;;;;;;;;5136148;27;20038;-91
2022/08/31 05:03:56;;;;;;;3.08;1.50;;;;;;;;;;5154406;27;20042;-86
2022/08/31 05:06:23;;;;;;;1.58;1.48;;;;;;;;;;5130081;27;20038;-89
2022/08/31 05:08:53;;;;;;;1.50;1.40;;;;;;;;;;5150923;27;20150;-87
2022/08/31 05:11:20;;;;;;;1.38;1.38;;;;;;;;;;5138668;27;20161;-86
2022/08/31 05:13:46;;;;;;;1.70;1.60;;;;;;;;;;5160027;27;20042;-86
2022/08/31 05:16:14;;;;;;;1.60;1.50;;;;;;;;;;5133168;27;20043;-87
2022/08/31 05:18:41;;;;;;;1.85;1.45;;;;;;;;;;5130109;27;20397;-89
2022/08/31 05:21:08;;;;;;;2.78;1.70;;;;;;;;;;5145828;27;20031;-91
2022/08/31 05:23:34;;;;;;;1.73;1.63;;;;;;;;;;5120180;27;20061;-89
2022/08/31 05:26:00;;;;;;;1.77;1.33;;;;;;;;;;5157277;27;20039;-88
2022/08/31 05:28:26;;;;;;;2.03;1.70;;;;;;;;;;5129897;27;20047;-88
2022/08/31 05:30:58;;;;;;;1.52;1.42;;;;;;;;;;5131605;27;20139;-88
2022/08/31 05:33:25;;;;;;;1.73;1.60;;;;;;;;;;5130185;27;20040;-90
2022/08/31 05:35:51;;;;;;;2.90;1.60;;;;;;;;;;5125571;27;20061;-89
2022/08/31 05:38:17;;;;;;;2.00;1.70;;;;;;;;;;5123185;27;20031;-90
2022/08/31 05:40:43;;;;;;;2.55;1.70;;;;;;;;;;5117209;27;20058;-88
2022/08/31 05:43:11;;;;;;;1.70;1.52;;;;;;;;;;5156550;27;20040;-86
2022/08/31 05:45:41;;;;;;;2.67;1.60;;;;;;;;;;5126144;27;20050;-87
2022/08/31 05:48:07;;;;;;;5.18;1.83;;;;;;;;;;5147360;27;20035;-89
2022/08/31 05:50:33;;;;;;;1.60;1.50;;;;;;;;;;5127845;27;20052;-88
2022/08/31 05:52:59;;;;;;;4.35;1.70;;;;;;;;;;5121841;27;20043;-89
2022/08/31 05:55:25;;;;;;;3.55;1.50;;;;;;;;;;5122507;27;20058;-90
2022/08/31 05:57:51;;;;;;;2.50;1.65;;;;;;;;;;5145046;27;20043;-90
2022/08/31 06:00:17;;;;;;;2.65;1.63;;;;;;;;;;5136026;27;20475;-92
2022/08/31 06:02:43;;;;;;;3.75;1.95;;;;;;;;;;5121472;27;20043;-89
2022/08/31 06:05:09;;;;;;;1.67;1.58;;;;;;;;;;5119003;27;20089;-92
2022/08/31 06:07:35;;;;;;;1.60;1.50;;;;;;;;;;5136252;27;20065;-89
2022/08/31 06:10:01;;;;;;;1.70;1.60;;;;;;;;;;5130441;27;20039;-91
2022/08/31 06:12:28;;;;;;;2.55;1.80;;;;;;;;;;5133967;27;20141;-89
2022/08/31 06:14:54;;;;;;;2.17;1.50;;;;;;;;;;5133453;27;20054;-90
2022/08/31 06:17:20;;;;;;;2.70;1.75;;;;;;;;;;5128051;27;20122;-91
2022/08/31 06:19:47;;;;;;;2.67;1.50;;;;;;;;;;5119594;27;20099;-90
2022/08/31 06:22:13;;;;;;;1.98;1.50;;;;;;;;;;5111510;27;20578;-91
2022/08/31 06:24:38;;;;;;;3.80;1.80;;;;;;;;;;5104397;28;20079;-92
2022/08/31 06:27:06;;;;;;;2.72;1.65;;;;;;;;;;5119713;27;20081;-92
2022/08/31 06:29:32;;;;;;;1.75;1.60;;;;;;;;;;5099014;28;20047;-92
2022/08/31 06:31:59;;;;;;;1.60;1.50;;;;;;;;;;5124495;27;20047;-89
2022/08/31 06:34:27;;;;;;;1.50;1.40;;;;;;;;;;5106415;28;20054;-93
2022/08/31 06:36:54;;;;;;;1.50;1.40;;;;;;;;;;5101192;28;20136;-92
2022/08/31 06:39:20;;;;;;;2.20;1.60;;;;;;;;;;5124231;27;20548;-90
2022/08/31 06:41:47;;;;;;;3.63;2.03;;;;;;;;;;5109699;27;20052;-91
2022/08/31 06:44:14;;;;;;;2.25;1.63;;;;;;;;;;5104782;27;20483;-89
2022/08/31 06:46:41;;;;;;;1.58;1.48;;;;;;;;;;5105213;27;20036;-86
2022/08/31 06:49:07;;;;;;;1.80;1.70;;;;;;;;;;5112674;27;20043;-89
2022/08/31 06:51:35;;;;;;;1.50;1.40;;;;;;;;;;5118047;28;20617;-89
2022/08/31 06:54:08;;;;;;;1.50;1.40;;;;;;;;;;5107855;27;20123;-90
2022/08/31 06:56:35;;;;;;;2.53;1.50;;;;;;;;;;5104896;28;20502;-86
2022/08/31 06:59:01;;;;;;;2.30;1.70;;;;;;;;;;5104750;27;20517;-91
2022/08/31 07:01:28;;;;;;;1.60;1.50;;;;;;;;;;5112868;27;20393;-86
2022/08/31 07:03:55;;;;;;;2.25;1.58;;;;;;;;;;5102650;28;20387;-88
2022/08/31 07:06:22;;;;;;;2.20;1.60;;;;;;;;;;5107400;27;20050;-86
2022/08/31 07:08:51;;;;;;;1.58;1.48;;;;;;;;;;5105347;27;20063;-86
2022/08/31 07:11:22;;;;;;;1.50;1.40;;;;;;;;;;5103393;27;20051;-89
2022/08/31 07:13:49;;;;;;;1.60;1.50;;;;;;;;;;5104769;27;20690;-87
2022/08/31 07:16:16;;;;;;;1.73;1.60;;;;;;;;;;5113497;27;20542;-88
2022/08/31 07:18:43;;;;;;;1.50;1.40;;;;;;;;;;5105861;28;20036;-88
2022/08/31 07:21:13;;;;;;;2.22;1.60;;;;;;;;;;5096042;27;20127;-86
2022/08/31 07:23:40;;;;;;;1.85;1.60;;;;;;;;;;5139396;27;20078;-88
2022/08/31 07:26:17;;;;;;;1.60;1.50;;;;;;;;;;5130425;27;20117;-87
2022/08/31 07:28:43;;;;;;;1.85;1.52;;;;;;;;;;5121031;27;20047;-88
2022/08/31 07:31:14;;;;;;;2.90;1.48;;;;;;;;;;5122676;27;20056;-87
2022/08/31 07:33:41;;;;;;;3.22;2.25;;;;;;;;;;5140978;27;20046;-88
2022/08/31 07:36:08;;;;;;;3.72;2.90;;;;;;;;;;5117477;27;20078;-88
2022/08/31 07:44:05;;;;;;;3.03;1.50;;;;;;;;;;5136647;27;20494;-89
2022/08/31 07:46:31;;;;;;;1.65;1.52;;;;;;;;;;5138815;27;20054;-86
2022/08/31 07:48:58;;;;;;;2.75;1.50;;;;;;;;;;5143614;27;20042;-87
2022/08/31 07:51:25;;;;;;;3.15;1.80;;;;;;;;;;5158111;27;20056;-87
2022/08/31 07:53:52;;;;;;;1.70;1.50;;;;;;;;;;5140060;27;20039;-86
2022/08/31 07:56:19;;;;;;;3.15;1.63;;;;;;;;;;5147197;27;20086;-89
2022/08/31 07:58:46;;;;;;;3.08;1.50;;;;;;;;;;5128783;27;20038;-86
2022/08/31 08:01:13;;;;;;;3.53;1.48;;;;;;;;;;5125578;27;20046;-88
2022/08/31 08:03:43;;;;;;;3.40;1.60;;;;;;;;;;5114075;27;20043;-88
2022/08/31 08:06:14;;;;;;;2.55;1.50;;;;;;;;;;5143132;27;20044;-88
2022/08/31 08:08:44;;;;;;;3.22;1.48;;;;;;;;;;5126612;27;20050;-86
2022/08/31 08:11:16;;;;;;;3.63;1.30;;;;;;;;;;5145822;27;20047;-87
2022/08/31 08:13:43;;;;;;;2.38;1.60;;;;;;;;;;5147509;27;20457;-88
2022/08/31 08:16:09;;;;;;;1.55;1.45;;;;;;;;;;5146987;27;20053;-89
2022/08/31 08:18:35;;;;;;;2.35;1.40;;;;;;;;;;5142890;27;20047;-90
2022/08/31 08:21:02;;;;;;;1.60;1.50;;;;;;;;;;5153175;27;20087;-89
2022/08/31 08:23:28;;;;;;;2.97;1.50;;;;;;;;;;5127426;27;20091;-86
2022/08/31 08:25:54;;;;;;;1.38;1.27;;;;;;;;;;5159087;27;20078;-90
2022/08/31 08:28:20;;;;;;;2.65;1.35;;;;;;;;;;5142130;27;20102;-92
2022/08/31 08:30:49;;;;;;;1.70;1.40;;;;;;;;;;5152214;27;20071;-93
2022/08/31 08:33:16;;;;;;;1.38;1.20;;;;;;;;;;5129746;27;20475;-89
2022/08/31 08:35:42;;;;;;;2.05;1.30;;;;;;;;;;5126398;27;20051;-90
2022/08/31 08:38:08;;;;;;;2.50;1.30;;;;;;;;;;5154654;27;20045;-89
2022/08/31 08:40:38;;;;;;;1.85;1.33;;;;;;;;;;5144555;27;20126;-90
2022/08/31 08:43:04;;;;;;;1.60;1.40;;;;;;;;;;5142111;27;20030;-90
2022/08/31 08:45:31;;;;;;;3.17;1.30;;;;;;;;;;5142512;27;20043;-88
2022/08/31 08:47:58;;;;;;;1.40;1.27;;;;;;;;;;5145148;27;20040;-91
2022/08/31 08:50:27;;;;;;;2.88;1.33;;;;;;;;;;5127818;27;20046;-91
2022/08/31 08:52:54;;;;;;;1.63;1.52;;;;;;;;;;5135362;27;20473;-87
2022/08/31 08:55:22;;;;;;;2.00;1.25;;;;;;;;;;5128865;27;20047;-86
2022/08/31 08:57:51;;;;;;;3.22;1.50;;;;;;;;;;5148152;27;20034;-95
2022/08/31 09:00:23;;;;;;;1.38;1.27;;;;;;;;;;5132969;27;20087;-91
2022/08/31 09:03:00;;;;;;;1.92;1.35;;;;;;;;;;5129330;27;20478;-89
2022/08/31 09:05:38;;;;;;;1.63;1.40;;;;;;;;;;5149959;27;20550;-88
2022/08/31 09:08:16;;;;;;;1.60;1.40;;;;;;;;;;5148898;27;20485;-86
2022/08/31 09:10:44;;;;;;;1.40;1.30;;;;;;;;;;5118915;27;20067;-86
2022/08/31 09:13:13;;;;;;;1.40;1.30;;;;;;;;;;5139279;27;20081;-85
2022/08/31 09:15:48;;;;;;;1.52;1.20;;;;;;;;;;5122829;27;20043;-85
2022/08/31 09:18:29;;;;;;;1.50;1.10;;;;;;;;;;5129660;27;20038;-87
2022/08/31 09:21:11;;;;;;;2.65;1.20;;;;;;;;;;5138238;27;20067;-89
2022/08/31 09:23:47;;;;;;;2.83;1.15;;;;;;;;;;5144623;27;20057;-87
2022/08/31 09:26:17;;;;;;;1.35;1.20;;;;;;;;;;5121239;27;20099;-87
2022/08/31 09:28:46;;;;;;;1.38;1.25;;;;;;;;;;5142907;27;20050;-85
2022/08/31 09:31:36;;;;;;;1.52;1.02;;;;;;;;;;5118896;27;20054;-89
2022/08/31 09:34:07;;;;;;;1.45;1.35;;;;;;;;;;5111481;27;20391;-88
2022/08/31 09:36:39;;;;;;;2.80;1.25;;;;;;;;;;5129136;27;20123;-87
2022/08/31 09:39:24;;;;;;;1.65;1.30;;;;;;;;;;5140621;27;20046;-84
2022/08/31 09:41:52;;;;;;;3.60;1.30;;;;;;;;;;5127782;27;20066;-86
2022/08/31 09:44:21;;;;;;;1.35;1.25;;;;;;;;;;5123567;27;20386;-86
2022/08/31 09:46:49;;;;;;;1.98;1.25;;;;;;;;;;5145433;27;20035;-89
2022/08/31 09:49:19;;;;;;;1.23;1.13;;;;;;;;;;5138016;27;20055;-91
2022/08/31 09:51:46;;;;;;;2.30;1.13;;;;;;;;;;5134498;27;20049;-89
2022/08/31 09:57:01;;;;;;;1.60;1.10;;;;;;;;;;5153531;27;20141;-88
2022/08/31 09:59:38;;;;;;;1.27;1.00;;;;;;;;;;5132530;27;20125;-91
2022/08/31 10:02:25;;;;;;;3.33;1.17;;;;;;;;;;5130209;27;20121;-90
2022/08/31 10:04:53;;;;;;;2.60;1.30;;;;;;;;;;5130277;27;20046;-89
2022/08/31 10:07:38;;;;;;;3.70;1.20;;;;;;;;;;5147812;27;20026;-93
2022/08/31 10:10:07;;;;;;;2.10;1.20;;;;;;;;;;5133914;27;20071;-84
2022/08/31 10:12:33;;;;;;;1.38;1.20;;;;;;;;;;5143523;27;20509;-83
2022/08/31 10:15:02;;;;;;;2.08;1.20;;;;;;;;;;5142988;27;21315;-83
2022/08/31 10:17:34;;;;;;;1.00;1.00;;;;;;;;;;5117124;27;20043;-84
2022/08/31 10:20:05;;;;;;;1.67;1.00;;;;;;;;;;5137432;27;20055;-84
2022/08/31 10:22:52;;;;;;;2.03;1.00;;;;;;;;;;5143082;27;20066;-83
2022/08/31 10:25:30;;;;;;;1.58;1.17;;;;;;;;;;5139702;27;20043;-83
2022/08/31 10:28:05;;;;;;;4.63;1.55;;;;;;;;;;5130043;27;20047;-84
2022/08/31 10:30:31;;;;;;;1.55;1.10;;;;;;;;;;5127520;27;20047;-84
2022/08/31 10:32:57;;;;;;;1.20;1.10;;;;;;;;;;5128263;27;20056;-84
2022/08/31 10:35:26;;;;;;;3.80;1.30;;;;;;;;;;5137907;27;20054;-83
2022/08/31 10:38:07;;;;;;;3.35;1.15;;;;;;;;;;5121246;27;20069;-85
2022/08/31 10:40:36;;;;;;;1.38;1.00;;;;;;;;;;5128861;27;20055;-83
2022/08/31 10:43:08;;;;;;;1.20;1.10;;;;;;;;;;5124139;27;20042;-85
2022/08/31 10:45:38;;;;;;;1.42;1.10;;;;;;;;;;5142822;27;20095;-86
2022/08/31 10:48:05;;;;;;;2.25;1.10;;;;;;;;;;5127227;27;20062;-81
2022/08/31 10:50:43;;;;;;;1.15;1.05;;;;;;;;;;5123942;27;20490;-82
2022/08/31 10:53:21;;;;;;;1.73;1.00;;;;;;;;;;5131427;27;20035;-82
2022/08/31 10:55:50;;;;;;;1.40;0.90;;;;;;;;;;5147186;27;20045;-82
2022/08/31 10:58:29;;;;;;;1.10;1.00;;;;;;;;;;5149521;27;20049;-82
2022/08/31 11:01:00;;;;;;;1.20;1.13;;;;;;;;;;5142503;27;20047;-82
2022/08/31 11:03:32;;;;;;;1.60;1.10;;;;;;;;;;5141474;27;20046;-81
2022/08/31 11:06:12;;;;;;;4.22;1.05;;;;;;;;;;5135188;27;20410;-81
2022/08/31 11:08:47;;;;;;;0.95;0.95;;;;;;;;;;5134656;27;20053;-82
2022/08/31 11:11:18;;;;;;;1.00;1.00;;;;;;;;;;5149278;27;20065;-84
2022/08/31 11:14:00;;;;;;;1.10;1.10;;;;;;;;;;5130551;27;20057;-83
2022/08/31 11:16:32;;;;;;;1.50;1.13;;;;;;;;;;5143293;27;20046;-82
2022/08/31 11:19:09;;;;;;;1.08;1.00;;;;;;;;;;5138907;27;20039;-83
2022/08/31 11:22:01;;;;;;;1.30;1.10;;;;;;;;;;5118399;27;20104;-82
2022/08/31 11:24:36;;;;;;;1.30;1.20;;;;;;;;;;5101963;27;20604;-82
2022/08/31 11:27:10;;;;;;;1.83;0.90;;;;;;;;;;5104174;28;20047;-83
2022/08/31 11:29:47;;;;;;;1.20;1.10;;;;;;;;;;5097529;27;20052;-83
2022/08/31 11:32:28;;;;;;;2.75;1.00;;;;;;;;;;5105851;27;20042;-82
2022/08/31 11:34:56;;;;;;;1.33;1.13;;;;;;;;;;5104467;27;20079;-83
2022/08/31 11:37:41;;;;;;;0.93;0.93;;;;;;;;;;5102599;27;20450;-85
2022/08/31 11:40:10;;;;;;;2.05;1.00;;;;;;;;;;5094416;27;20480;-83
2022/08/31 11:42:39;;;;;;;3.42;1.20;;;;;;;;;;5100857;27;20043;-82
2022/08/31 11:45:07;;;;;;;1.40;1.17;;;;;;;;;;5107071;27;20092;-83
2022/08/31 11:47:35;;;;;;;1.17;1.08;;;;;;;;;;5099083;28;20089;-86
2022/08/31 11:50:04;;;;;;;1.80;1.20;;;;;;;;;;5099325;28;20078;-83
2022/08/31 11:52:47;;;;;;;1.25;1.15;;;;;;;;;;5102242;28;20047;-83
2022/08/31 11:55:27;;;;;;;1.95;1.10;;;;;;;;;;5110703;28;20043;-85
2022/08/31 11:58:05;;;;;;;3.67;1.65;;;;;;;;;;5100176;28;20047;-83
2022/08/31 12:00:50;;;;;;;1.25;1.10;;;;;;;;;;5103950;28;20044;-83
2022/08/31 12:03:34;;;;;;;3.08;1.17;;;;;;;;;;5107655;28;20126;-83
2022/08/31 12:06:00;;;;;;;2.60;1.20;;;;;;;;;;5103718;28;20040;-82
2022/08/31 12:08:31;;;;;;;1.20;1.10;;;;;;;;;;5095155;28;20047;-84
2022/08/31 12:11:02;;;;;;;1.58;1.10;;;;;;;;;;5100005;28;20411;-84
2022/08/31 12:13:32;;;;;;;1.80;1.10;;;;;;;;;;5094333;28;20135;-83
2022/08/31 12:15:59;;;;;;;2.97;1.10;;;;;;;;;;5092267;28;20555;-82
2022/08/31 12:18:46;;;;;;;4.68;1.55;;;;;;;;;;5105718;28;20079;-82
2022/08/31 12:24:14;;;;;;;0.90;0.90;;;;;;;;;;5123178;27;20050;-83
2022/08/31 12:26:50;;;;;;;2.67;1.20;;;;;;;;;;5120000;27;20418;-84
2022/08/31 12:29:16;;;;;;;1.00;1.00;;;;;;;;;;5126698;27;20121;-82
2022/08/31 12:31:43;;;;;;;2.65;1.25;;;;;;;;;;5119680;27;20054;-83
2022/08/31 12:34:16;;;;;;;1.08;1.00;;;;;;;;;;5126772;27;20200;-83
2022/08/31 12:36:42;;;;;;;1.20;1.10;;;;;;;;;;5147708;27;20034;-83
2022/08/31 12:39:13;;;;;;;2.83;1.00;;;;;;;;;;5137269;27;20435;-84
2022/08/31 12:41:48;;;;;;;1.60;1.23;;;;;;;;;;5146051;27;20055;-82
2022/08/31 12:44:27;;;;;;;1.33;1.23;;;;;;;;;;5122773;27;20047;-83
2022/08/31 12:46:53;;;;;;;1.30;1.30;;;;;;;;;;5128005;27;20046;-86
2022/08/31 12:49:38;;;;;;;2.58;1.10;;;;;;;;;;5131745;27;20072;-84
2022/08/31 12:52:23;;;;;;;1.65;1.17;;;;;;;;;;5138435;27;20108;-84
2022/08/31 12:55:08;;;;;;;2.53;1.00;;;;;;;;;;5129444;27;20038;-88
2022/08/31 12:57:34;;;;;;;1.33;1.23;;;;;;;;;;5134047;27;20058;-84
2022/08/31 13:00:09;;;;;;;1.23;0.98;;;;;;;;;;5146799;27;20027;-83
2022/08/31 13:02:40;;;;;;;2.10;1.23;;;;;;;;;;5146069;27;20047;-83
2022/08/31 13:05:17;;;;;;;1.10;0.85;;;;;;;;;;5137836;27;20039;-83
2022/08/31 13:07:43;;;;;;;2.25;1.10;;;;;;;;;;5144580;27;20057;-83
2022/08/31 13:10:09;;;;;;;2.25;1.25;;;;;;;;;;5126317;27;20126;-84
2022/08/31 13:12:36;;;;;;;2.83;1.05;;;;;;;;;;5132274;27;20053;-81
2022/08/31 13:15:02;;;;;;;3.47;1.42;;;;;;;;;;5130946;27;20039;-84
2022/08/31 13:17:29;;;;;;;2.45;1.30;;;;;;;;;;5144623;27;20043;-83
2022/08/31 13:19:59;;;;;;;1.25;0.98;;;;;;;;;;5133783;27;20046;-82
2022/08/31 13:22:47;;;;;;;2.65;1.20;;;;;;;;;;5146011;27;20174;-82
2022/08/31 13:25:34;;;;;;;2.58;1.17;;;;;;;;;;5124163;27;20078;-85
2022/08/31 13:28:01;;;;;;;3.42;1.10;;;;;;;;;;5119417;27;20062;-83
2022/08/31 13:30:30;;;;;;;2.25;1.20;;;;;;;;;;5134101;27;20046;-83
2022/08/31 13:32:56;;;;;;;1.20;1.10;;;;;;;;;;5118538;27;20395;-83
2022/08/31 13:35:24;;;;;;;2.33;1.02;;;;;;;;;;5127128;27;20039;-83
2022/08/31 13:38:04;;;;;;;4.63;1.20;;;;;;;;;;5127530;27;20042;-82
2022/08/31 13:40:35;;;;;;;1.20;1.10;;;;;;;;;;5140673;27;20046;-83
2022/08/31 13:43:03;;;;;;;3.15;1.17;;;;;;;;;;5126527;27;20407;-83
2022/08/31 13:45:31;;;;;;;4.43;1.30;;;;;;;;;;5145582;27;20077;-84
2022/08/31 13:48:02;;;;;;;1.50;1.38;;;;;;;;;;5123619;27;20043;-84
2022/08/31 13:50:53;;;;;;;4.13;1.30;;;;;;;;;;5119195;27;20039;-83
2022/08/31 13:53:36;;;;;;;1.67;1.10;;;;;;;;;;5134306;27;20035;-83
2022/08/31 13:56:53;;;;;;;2.38;1.40;;;;;;;;;;5135602;27;20047;-84
2022/08/31 13:59:16;;;;;;;5.30;1.40;;;;;;;;;;5121831;27;20095;-83
2022/08/31 14:01:47;;;;;;;1.90;1.38;;;;;;;;;;5146099;27;20050;-84
2022/08/31 14:04:42;;;;;;;2.50;1.20;;;;;;;;;;5148039;27;20043;-83
2022/08/31 14:07:08;;;;;;;1.17;0.98;;;;;;;;;;5135645;27;20100;-82
2022/08/31 14:09:35;;;;;;;2.35;1.30;;;;;;;;;;5146151;27;20058;-83
2022/08/31 14:12:04;;;;;;;1.08;0.90;;;;;;;;;;5124857;27;20047;-84
2022/08/31 14:14:39;;;;;;;7.43;1.20;;;;;;;;;;5132859;27;20065;-86
2022/08/31 14:17:05;;;;;;;1.80;1.20;;;;;;;;;;5138205;27;20403;-83
2022/08/31 14:19:32;;;;;;;3.83;1.08;;;;;;;;;;5133520;27;20050;-84
2022/08/31 14:22:15;;;;;;;3.03;1.15;;;;;;;;;;5141149;27;20517;-84
2022/08/31 14:24:42;;;;;;;1.83;1.10;;;;;;;;;;5147742;27;20053;-83
2022/08/31 14:27:10;;;;;;;5.75;1.33;;;;;;;;;;5139731;27;20043;-84
2022/08/31 14:29:39;;;;;;;1.02;0.90;;;;;;;;;;5137714;27;20042;-89
2022/08/31 14:32:05;;;;;;;4.57;1.20;;;;;;;;;;5143194;27;20046;-86
2022/08/31 14:34:32;;;;;;;3.08;1.25;;;;;;;;;;5150211;27;20054;-86
2022/08/31 14:37:05;;;;;;;2.85;1.17;;;;;;;;;;5145104;27;20053;-87
2022/08/31 14:39:33;;;;;;;2.33;1.10;;;;;;;;;;5143310;27;20051;-86
2022/08/31 14:42:01;;;;;;;4.22;1.15;;;;;;;;;;5135184;27;20043;-86
2022/08/31 14:44:29;;;;;;;3.63;1.00;;;;;;;;;;5143338;27;20433;-86
2022/08/31 14:46:55;;;;;;;2.08;0.90;;;;;;;;;;5148381;27;20039;-87
2022/08/31 14:49:22;;;;;;;2.78;0.90;;;;;;;;;;5152122;27;20039;-86
2022/08/31 14:51:48;;;;;;;4.00;0.90;;;;;;;;;;5139682;27;20047;-88
2022/08/31 14:54:17;;;;;;;2.60;1.00;;;;;;;;;;5151554;27;20482;-88
2022/08/31 14:56:47;;;;;;;4.82;1.00;;;;;;;;;;5141250;27;20047;-87
2022/08/31 14:59:15;;;;;;;2.72;1.00;;;;;;;;;;5151473;27;20043;-88
2022/08/31 15:01:43;;;;;;;3.47;0.90;;;;;;;;;;5148685;27;20395;-90
2022/08/31 15:04:13;;;;;;;3.92;1.40;;;;;;;;;;5148937;27;20189;-87
2022/08/31 15:06:40;;;;;;;2.05;1.10;;;;;;;;;;5143804;27;20371;-89
2022/08/31 15:09:07;;;;;;;2.10;0.85;;;;;;;;;;5141906;27;20065;-87
2022/08/31 15:11:38;;;;;;;4.35;0.90;;;;;;;;;;5140490;27;20054;-88